createdAt,value
2022-12-11T00:01:30.845Z,98176.03
2022-12-11T00:03:57.450Z,98177.69
2022-12-11T00:06:24.127Z,98176.78
2022-12-11T00:08:55.042Z,98175.09
2022-12-11T00:11:23.231Z,98172.44
2022-12-11T00:13:49.792Z,98170.69
2022-12-11T00:16:16.784Z,98175.78
2022-12-11T00:18:43.548Z,98161.22
2022-12-11T00:21:14.288Z,98167.13
2022-12-11T00:23:41.708Z,98159.38
2022-12-11T00:26:12.963Z,98159.38
2022-12-11T00:28:39.639Z,98157.66
2022-12-11T00:31:09.070Z,98155.03
2022-12-11T00:33:35.664Z,98160.09
2022-12-11T00:36:02.254Z,98158.34
2022-12-11T00:38:28.791Z,98155.78
2022-12-11T00:40:59.825Z,98164.31
2022-12-11T00:43:26.255Z,98164.25
2022-12-11T00:45:52.960Z,98165.09
2022-12-11T00:48:19.831Z,98170.19
2022-12-11T00:50:47.007Z,98160.75
2022-12-11T00:53:13.843Z,98163.34
2022-12-11T00:55:42.579Z,98162.41
2022-12-11T00:58:10.483Z,98156.34
2022-12-11T01:00:37.750Z,98157.13
2022-12-11T01:03:04.947Z,98156.31
2022-12-11T01:05:32.194Z,98163.97
2022-12-11T01:07:59.029Z,98145.09
2022-12-11T01:10:25.961Z,98158.78
2022-12-11T01:12:59.111Z,98160.44
2022-12-11T01:15:29.143Z,98160.38
2022-12-11T01:17:56.025Z,98153.50
2022-12-11T01:20:23.629Z,98157.81
2022-12-11T01:22:54.019Z,98159.47
2022-12-11T01:25:21.207Z,98163.72
2022-12-11T01:27:51.353Z,98172.25
2022-12-11T01:30:18.542Z,98162.75
2022-12-11T01:32:45.099Z,98168.66
2022-12-11T01:35:12.574Z,98163.50
2022-12-11T01:37:39.815Z,98158.31
2022-12-11T01:40:09.765Z,98163.44
2022-12-11T01:42:36.303Z,98162.53
2022-12-11T01:45:38.954Z,98158.22
2022-12-11T01:48:12.698Z,98167.59
2022-12-11T01:50:44.235Z,98171.84
2022-12-11T01:53:13.833Z,98171.84
2022-12-11T01:55:41.199Z,98177.78
2022-12-11T01:58:08.759Z,98189.78
2022-12-11T02:00:35.466Z,98188.03
2022-12-11T02:03:02.050Z,98187.97
2022-12-11T02:05:28.650Z,98187.09
2022-12-11T02:07:58.873Z,98184.50
2022-12-11T02:10:44.410Z,98186.22
2022-12-11T02:13:21.693Z,98187.91
2022-12-11T02:16:00.986Z,98177.63
2022-12-11T02:18:38.918Z,98175.94
2022-12-11T02:21:27.944Z,98167.34
2022-12-11T02:24:03.578Z,98175.06
2022-12-11T02:26:40.264Z,98172.50
2022-12-11T02:29:12.362Z,98176.75
2022-12-11T02:31:45.213Z,98171.66
2022-12-11T02:34:34.985Z,98174.19
2022-12-11T02:37:05.787Z,98172.47
2022-12-11T02:39:35.855Z,98165.63
2022-12-11T02:42:04.087Z,98174.22
2022-12-11T02:44:34.025Z,98164.69
2022-12-11T02:47:01.925Z,98166.34
2022-12-11T02:49:30.374Z,98167.16
2022-12-11T02:51:59.231Z,98157.69
2022-12-11T02:54:30.476Z,98160.25
2022-12-11T02:57:04.861Z,98166.22
2022-12-11T02:59:38.473Z,98167.03
2022-12-11T03:02:05.658Z,98162.75
2022-12-11T03:04:35.247Z,98165.28
2022-12-11T03:07:17.220Z,98154.97
2022-12-11T03:09:46.560Z,98162.63
2022-12-11T03:12:18.686Z,98163.44
2022-12-11T03:14:45.774Z,98149.69
2022-12-11T03:17:21.272Z,98147.94
2022-12-11T03:20:00.285Z,98141.03
2022-12-11T03:22:33.726Z,98146.19
2022-12-11T03:25:02.658Z,98166.09
2022-12-11T03:28:06.819Z,98167.78
2022-12-11T03:30:36.970Z,98167.84
2022-12-11T03:33:11.994Z,98164.50
2022-12-11T03:35:45.477Z,98151.56
2022-12-11T03:38:18.758Z,98161.88
2022-12-11T03:40:49.635Z,98167.78
2022-12-11T03:43:17.779Z,98167.09
2022-12-11T03:45:47.259Z,98165.31
2022-12-11T03:48:16.785Z,98156.72
2022-12-11T03:50:43.912Z,98167.84
2022-12-11T03:53:10.913Z,98166.13
2022-12-11T03:55:39.617Z,98162.69
2022-12-11T03:58:06.533Z,98153.41
2022-12-11T04:00:33.272Z,98153.47
2022-12-11T04:03:15.879Z,98148.25
2022-12-11T04:05:50.403Z,98148.19
2022-12-11T04:08:20.682Z,98152.47
2022-12-11T04:10:48.022Z,98153.44
2022-12-11T04:13:14.702Z,98143.16
2022-12-11T04:15:41.355Z,98147.31
2022-12-11T04:18:27.094Z,98143.78
2022-12-11T04:21:13.324Z,98134.31
2022-12-11T04:23:58.563Z,98142.78
2022-12-11T04:26:25.358Z,98148.00
2022-12-11T04:28:51.934Z,98143.94
2022-12-11T04:31:21.601Z,98143.78
2022-12-11T04:33:48.786Z,98138.63
2022-12-11T04:36:16.084Z,98132.66
2022-12-11T04:38:42.669Z,98128.34
2022-12-11T04:41:13.310Z,98129.22
2022-12-11T04:43:40.071Z,98135.19
2022-12-11T04:46:10.051Z,98129.97
2022-12-11T04:48:38.401Z,98120.50
2022-12-11T04:51:05.677Z,98125.94
2022-12-11T04:53:32.775Z,98123.25
2022-12-11T04:55:59.437Z,98132.59
2022-12-11T04:58:26.617Z,98131.88
2022-12-11T05:00:53.726Z,98132.94
2022-12-11T05:03:20.789Z,98146.69
2022-12-11T05:05:49.377Z,98132.00
2022-12-11T05:08:16.465Z,98125.22
2022-12-11T05:10:48.554Z,98122.44
2022-12-11T05:13:16.559Z,98122.63
2022-12-11T05:15:43.135Z,98118.28
2022-12-11T05:18:09.811Z,98124.06
2022-12-11T05:20:36.371Z,98120.53
2022-12-11T05:23:03.111Z,98120.44
2022-12-11T05:25:29.702Z,98118.66
2022-12-11T05:27:56.321Z,98118.66
2022-12-11T05:30:22.879Z,98115.16
2022-12-11T05:32:49.449Z,98112.63
2022-12-11T05:35:16.151Z,98116.03
2022-12-11T05:37:42.715Z,98116.84
2022-12-11T05:40:10.146Z,98113.31
2022-12-11T05:42:36.707Z,98114.13
2022-12-11T05:45:03.534Z,98113.31
2022-12-11T05:47:31.442Z,98118.41
2022-12-11T05:49:58.014Z,98111.59
2022-12-11T05:52:24.575Z,98110.78
2022-12-11T05:54:51.071Z,98116.00
2022-12-11T05:57:17.681Z,98117.78
2022-12-11T05:59:45.262Z,98117.66
2022-12-11T06:02:11.898Z,98108.16
2022-12-11T06:04:38.574Z,98116.84
2022-12-11T06:07:05.164Z,98123.69
2022-12-11T06:09:31.687Z,98111.66
2022-12-11T06:11:58.237Z,98103.88
2022-12-11T06:14:24.757Z,98111.75
2022-12-11T06:16:51.482Z,98110.06
2022-12-11T06:19:18.557Z,98109.31
2022-12-11T06:21:45.822Z,98115.25
2022-12-11T06:24:12.870Z,98103.13
2022-12-11T06:26:39.473Z,98098.88
2022-12-11T06:29:11.038Z,98096.34
2022-12-11T06:31:39.719Z,98095.41
2022-12-11T06:34:06.339Z,98100.56
2022-12-11T06:36:32.911Z,98105.59
2022-12-11T06:38:59.472Z,98101.28
2022-12-11T06:41:26.027Z,98103.81
2022-12-11T06:43:52.690Z,98110.72
2022-12-11T06:46:20.265Z,98106.38
2022-12-11T06:48:48.101Z,98103.75
2022-12-11T06:51:18.216Z,98100.28
2022-12-11T06:53:45.714Z,98102.13
2022-12-11T06:56:14.649Z,98099.59
2022-12-11T06:58:42.838Z,98102.19
2022-12-11T07:01:25.652Z,98115.00
2022-12-11T07:03:57.250Z,98110.69
2022-12-11T07:06:24.833Z,98106.41
2022-12-11T07:08:51.836Z,98112.44
2022-12-11T07:11:20.367Z,98116.03
2022-12-11T07:13:47.863Z,98118.53
2022-12-11T07:16:16.428Z,98120.28
2022-12-11T07:18:47.147Z,98114.31
2022-12-11T07:21:14.260Z,98121.19
2022-12-11T07:23:41.226Z,98122.09
2022-12-11T07:26:11.317Z,98128.97
2022-12-11T07:28:38.151Z,98121.25
2022-12-11T07:31:17.009Z,98122.97
2022-12-11T07:33:43.987Z,98120.41
2022-12-11T07:36:12.428Z,98122.09
2022-12-11T07:38:39.642Z,98123.06
2022-12-11T07:41:09.190Z,98122.25
2022-12-11T07:43:36.462Z,98125.91
2022-12-11T07:46:05.041Z,98126.72
2022-12-11T07:48:32.175Z,98125.91
2022-12-11T07:51:32.259Z,98122.69
2022-12-11T07:54:01.393Z,98116.53
2022-12-11T07:56:29.820Z,98130.16
2022-12-11T07:58:58.905Z,98122.38
2022-12-11T08:01:27.884Z,98118.03
2022-12-11T08:03:55.293Z,98121.38
2022-12-11T08:06:29.986Z,98128.16
2022-12-11T08:08:57.733Z,98129.78
2022-12-11T08:11:25.170Z,98128.00
2022-12-11T08:13:51.779Z,98122.94
2022-12-11T08:16:19.200Z,98119.41
2022-12-11T08:18:47.510Z,98124.56
2022-12-11T08:21:26.494Z,98126.25
2022-12-11T08:23:54.338Z,98115.81
2022-12-11T08:26:26.821Z,98114.03
2022-12-11T08:28:53.792Z,98118.59
2022-12-11T08:31:20.993Z,98116.81
2022-12-11T08:33:48.652Z,98121.78
2022-12-11T08:36:18.774Z,98120.13
2022-12-11T08:38:46.709Z,98124.56
2022-12-11T08:41:16.701Z,98126.19
2022-12-11T08:43:44.212Z,98124.34
2022-12-11T08:46:12.250Z,98118.22
2022-12-11T08:48:40.679Z,98126.78
2022-12-11T08:51:11.109Z,98119.81
2022-12-11T08:53:38.918Z,98114.19
2022-12-11T08:56:08.511Z,98113.16
2022-12-11T08:58:35.755Z,98114.88
2022-12-11T09:01:10.845Z,98111.53
2022-12-11T09:03:38.321Z,98117.56
2022-12-11T09:06:10.731Z,98113.09
2022-12-11T09:08:38.222Z,98106.25
2022-12-11T09:11:06.869Z,98115.53
2022-12-11T09:13:33.825Z,98115.41
2022-12-11T09:16:00.870Z,98104.47
2022-12-11T09:18:27.514Z,98104.34
2022-12-11T09:21:06.058Z,98103.41
2022-12-11T09:23:32.750Z,98110.09
2022-12-11T09:25:59.420Z,98105.13
2022-12-11T09:28:26.407Z,98106.75
2022-12-11T09:30:52.992Z,98110.22
2022-12-11T09:33:19.571Z,98104.06
2022-12-11T09:35:46.269Z,98110.00
2022-12-11T09:38:12.852Z,98108.44
2022-12-11T09:40:43.478Z,98103.28
2022-12-11T09:43:27.102Z,98111.69
2022-12-11T09:45:55.205Z,98115.09
2022-12-11T09:48:25.759Z,98109.06
2022-12-11T09:50:55.143Z,98109.94
2022-12-11T09:53:35.827Z,98101.47
2022-12-11T09:56:33.829Z,98102.22
2022-12-11T09:59:27.413Z,98085.03
2022-12-11T10:02:29.535Z,98091.63
2022-12-11T10:05:02.078Z,98088.91
2022-12-11T10:07:55.088Z,98086.25
2022-12-11T10:10:36.898Z,98082.72
2022-12-11T10:13:14.263Z,98082.63
2022-12-11T10:15:56.819Z,98083.81
2022-12-11T10:18:27.735Z,98078.84
2022-12-11T10:20:56.682Z,98071.03
2022-12-11T10:23:56.911Z,98060.16
2022-12-11T10:26:23.894Z,98069.25
2022-12-11T10:28:50.871Z,98066.34
2022-12-11T10:31:32.155Z,98060.22
2022-12-11T10:34:13.493Z,98066.97
2022-12-11T10:36:42.398Z,98056.41
2022-12-11T10:39:15.627Z,98051.00
2022-12-11T10:41:44.755Z,98050.75
2022-12-11T10:44:27.850Z,98042.19
2022-12-11T10:47:09.612Z,98041.09
2022-12-11T10:49:38.439Z,98038.34
2022-12-11T10:52:18.499Z,98031.16
2022-12-11T10:54:48.874Z,98031.06
2022-12-11T10:57:16.023Z,98030.31
2022-12-11T10:59:50.634Z,98030.72
2022-12-11T11:02:25.570Z,98020.19
2022-12-11T11:04:53.791Z,98020.03
2022-12-11T11:07:30.375Z,98016.53
2022-12-11T11:10:12.157Z,98013.41
2022-12-11T11:12:48.319Z,98007.09
2022-12-11T11:15:17.766Z,98008.75
2022-12-11T11:17:54.514Z,97997.84
2022-12-11T11:20:25.934Z,97996.72
2022-12-11T11:22:54.801Z,98003.41
2022-12-11T11:25:24.433Z,97992.19
2022-12-11T11:28:06.381Z,97996.56
2022-12-11T11:30:39.945Z,97992.91
2022-12-11T11:33:23.955Z,97997.16
2022-12-11T11:35:57.723Z,97993.50
2022-12-11T11:38:36.123Z,97994.09
2022-12-11T11:41:19.072Z,97988.09
2022-12-11T11:43:51.210Z,97981.22
2022-12-11T11:46:36.577Z,97981.75
2022-12-11T11:49:22.459Z,97981.59
2022-12-11T11:52:08.200Z,97981.59
2022-12-11T11:54:39.902Z,97980.75
2022-12-11T11:57:35.518Z,97982.44
2022-12-11T12:00:10.863Z,97979.72
2022-12-11T12:02:37.803Z,97973.06
2022-12-11T12:05:04.817Z,97969.56
2022-12-11T12:07:34.386Z,97963.44
2022-12-11T12:10:21.495Z,97966.84
2022-12-11T12:12:51.065Z,97970.97
2022-12-11T12:15:34.525Z,97969.97
2022-12-11T12:18:16.089Z,97967.38
2022-12-11T12:21:08.762Z,97970.09
2022-12-11T12:23:53.498Z,97968.19
2022-12-11T12:26:32.925Z,97963.91
2022-12-11T12:29:20.977Z,97961.34
2022-12-11T12:32:14.128Z,97960.53
2022-12-11T12:34:52.988Z,97956.06
2022-12-11T12:37:54.218Z,97960.31
2022-12-11T12:40:32.790Z,97960.97
2022-12-11T12:43:30.170Z,97966.00
2022-12-11T12:46:10.572Z,97965.78
2022-12-11T12:48:37.480Z,97962.56
2022-12-11T12:51:04.774Z,97954.66
2022-12-11T12:53:34.452Z,97951.16
2022-12-11T12:56:02.603Z,97957.16
2022-12-11T12:58:49.685Z,97958.03
2022-12-11T13:01:27.463Z,97959.66
2022-12-11T13:04:01.757Z,97961.16
2022-12-11T13:06:45.999Z,97959.69
2022-12-11T13:09:19.231Z,97963.88
2022-12-11T13:11:47.331Z,97967.63
2022-12-11T13:14:13.790Z,97959.56
2022-12-11T13:16:43.147Z,97974.00
2022-12-11T13:19:27.942Z,97980.84
2022-12-11T13:22:02.801Z,97979.16
2022-12-11T13:24:32.146Z,97971.69
2022-12-11T13:27:10.281Z,97971.63
2022-12-11T13:29:39.563Z,97973.03
2022-12-11T13:32:09.190Z,97968.31
2022-12-11T13:34:45.266Z,97973.28
2022-12-11T13:37:36.000Z,97979.97
2022-12-11T13:40:07.094Z,97982.94
2022-12-11T13:42:36.084Z,97972.88
2022-12-11T13:45:04.285Z,97977.84
2022-12-11T13:47:32.952Z,97974.72
2022-12-11T13:50:23.261Z,97988.31
2022-12-11T13:52:55.090Z,97985.38
2022-12-11T13:55:25.688Z,97977.78
2022-12-11T13:57:52.301Z,97982.44
2022-12-11T14:00:39.317Z,97989.78
2022-12-11T14:03:09.859Z,97985.53
2022-12-11T14:05:36.522Z,97984.50
2022-12-11T14:08:09.627Z,97986.81
2022-12-11T14:10:37.124Z,97995.47
2022-12-11T14:13:07.468Z,97995.78
2022-12-11T14:15:36.335Z,98000.13
2022-12-11T14:18:04.957Z,98002.59
2022-12-11T14:20:34.172Z,98006.66
2022-12-11T14:23:18.443Z,98008.50
2022-12-11T14:26:01.439Z,98013.84
2022-12-11T14:28:30.649Z,98013.59
2022-12-11T14:30:59.791Z,98013.50
2022-12-11T14:33:32.571Z,98014.38
2022-12-11T14:36:00.571Z,98017.97
2022-12-11T14:38:33.074Z,98015.69
2022-12-11T14:41:05.338Z,98009.47
2022-12-11T14:43:39.526Z,98010.13
2022-12-11T14:46:15.558Z,98010.31
2022-12-11T14:48:53.862Z,98000.22
2022-12-11T14:51:28.692Z,98005.66
2022-12-11T14:53:55.549Z,98013.19
2022-12-11T14:56:25.665Z,98009.81
2022-12-11T14:58:59.231Z,98016.78
2022-12-11T15:01:29.556Z,98018.34
2022-12-11T15:04:15.458Z,98013.09
2022-12-11T15:06:48.375Z,98013.00
2022-12-11T15:09:21.953Z,98010.41
2022-12-11T15:11:51.182Z,98015.38
2022-12-11T15:14:21.023Z,98007.53
2022-12-11T15:16:49.267Z,98016.16
2022-12-11T15:19:30.732Z,98014.34
2022-12-11T15:22:06.690Z,98016.09
2022-12-11T15:24:40.686Z,98017.72
2022-12-11T15:27:29.660Z,98016.16
2022-12-11T15:29:56.862Z,98023.03
2022-12-11T15:32:23.556Z,98019.59
2022-12-11T15:35:00.051Z,98024.94
2022-12-11T15:37:36.589Z,98027.41
2022-12-11T15:40:05.360Z,98018.84
2022-12-11T15:42:39.781Z,98026.88
2022-12-11T15:45:09.486Z,98013.34
2022-12-11T15:47:36.210Z,98027.09
2022-12-11T15:50:12.586Z,98026.84
2022-12-11T15:52:39.315Z,98033.53
2022-12-11T15:55:06.123Z,98026.50
2022-12-11T15:57:32.710Z,98025.00
2022-12-11T15:59:59.355Z,98030.00
2022-12-11T16:02:27.933Z,98029.06
2022-12-11T16:04:54.813Z,98024.00
2022-12-11T16:07:24.860Z,98028.28
2022-12-11T16:09:52.682Z,98024.75
2022-12-11T16:12:19.733Z,98023.94
2022-12-11T16:14:46.714Z,98023.16
2022-12-11T16:17:14.980Z,98027.34
2022-12-11T16:19:43.094Z,98025.72
2022-12-11T16:22:10.733Z,98024.84
2022-12-11T16:24:37.859Z,98027.50
2022-12-11T16:27:05.804Z,98019.78
2022-12-11T16:29:36.747Z,98024.03
2022-12-11T16:32:04.058Z,98022.31
2022-12-11T16:34:30.696Z,98025.81
2022-12-11T16:36:58.292Z,98017.22
2022-12-11T16:39:25.059Z,98024.94
2022-12-11T16:41:51.670Z,98016.28
2022-12-11T16:44:25.599Z,98013.81
2022-12-11T16:46:53.762Z,98009.44
2022-12-11T16:49:21.106Z,98008.63
2022-12-11T16:51:49.535Z,98013.63
2022-12-11T16:54:16.679Z,98015.78
2022-12-11T16:56:43.788Z,98009.72
2022-12-11T16:59:11.034Z,98005.25
2022-12-11T17:01:37.707Z,97999.28
2022-12-11T17:04:04.366Z,98001.09
2022-12-11T17:06:31.022Z,97998.50
2022-12-11T17:08:57.850Z,98000.91
2022-12-11T17:11:27.743Z,98006.06
2022-12-11T17:13:55.641Z,97995.66
2022-12-11T17:16:24.943Z,97997.31
2022-12-11T17:18:52.212Z,98002.59
2022-12-11T17:21:20.194Z,98005.94
2022-12-11T17:23:46.779Z,97997.25
2022-12-11T17:26:13.393Z,97997.22
2022-12-11T17:28:40.201Z,97986.81
2022-12-11T17:31:09.854Z,97984.97
2022-12-11T17:33:36.502Z,97991.78
2022-12-11T17:36:05.367Z,97975.50
2022-12-11T17:38:32.780Z,97977.59
2022-12-11T17:40:59.647Z,97980.88
2022-12-11T17:43:26.421Z,97980.22
2022-12-11T17:45:53.251Z,97986.19
2022-12-11T17:48:22.511Z,97979.28
2022-12-11T17:50:50.638Z,97985.22
2022-12-11T17:53:18.960Z,97983.41
2022-12-11T17:55:46.632Z,97985.03
2022-12-11T17:58:18.541Z,97985.81
2022-12-11T18:00:47.328Z,97987.50
2022-12-11T18:03:14.612Z,97982.34
2022-12-11T18:05:47.029Z,97982.28
2022-12-11T18:08:15.015Z,97978.81
2022-12-11T18:10:42.749Z,97980.50
2022-12-11T18:13:09.973Z,97986.53
2022-12-11T18:15:36.944Z,97987.34
2022-12-11T18:18:04.423Z,97982.19
2022-12-11T18:20:32.739Z,97978.72
2022-12-11T18:22:59.988Z,97987.34
2022-12-11T18:25:26.839Z,97973.63
2022-12-11T18:27:56.868Z,97975.31
2022-12-11T18:30:25.131Z,97975.38
2022-12-11T18:32:52.156Z,97977.09
2022-12-11T18:35:19.457Z,97977.09
2022-12-11T18:37:46.274Z,97976.22
2022-12-11T18:40:12.895Z,97975.47
2022-12-11T18:42:39.739Z,97971.41
2022-12-11T18:45:07.042Z,97975.97
2022-12-11T18:47:33.892Z,97977.06
2022-12-11T18:50:07.102Z,97977.44
2022-12-11T18:52:34.512Z,97986.69
2022-12-11T18:55:01.120Z,97978.97
2022-12-11T18:57:27.714Z,97981.44
2022-12-11T18:59:54.648Z,97985.63
2022-12-11T19:02:21.919Z,97978.63
2022-12-11T19:04:48.623Z,97984.91
2022-12-11T19:07:15.215Z,97983.09
2022-12-11T19:09:46.361Z,97993.38
2022-12-11T19:12:14.295Z,97987.28
2022-12-11T19:14:40.939Z,97996.69
2022-12-11T19:17:07.680Z,97995.06
2022-12-11T19:19:34.262Z,97990.88
2022-12-11T19:22:00.826Z,97995.19
2022-12-11T19:24:27.464Z,97989.16
2022-12-11T19:26:54.054Z,97988.19
2022-12-11T19:29:26.665Z,97993.22
2022-12-11T19:31:55.187Z,97990.53
2022-12-11T19:34:22.155Z,97985.50
2022-12-11T19:36:48.893Z,97986.47
2022-12-11T19:39:15.718Z,97992.47
2022-12-11T19:41:42.357Z,97995.84
2022-12-11T19:44:09.626Z,97991.53
2022-12-11T19:46:36.281Z,97988.97
2022-12-11T19:49:02.943Z,97991.47
2022-12-11T19:51:41.362Z,97988.97
2022-12-11T19:54:10.090Z,97994.94
2022-12-11T19:56:36.874Z,97989.03
2022-12-11T19:59:06.764Z,97995.91
2022-12-11T20:01:35.850Z,97995.06
2022-12-11T20:04:10.329Z,98000.13
2022-12-11T20:06:39.794Z,97994.06
2022-12-11T20:09:10.904Z,97992.28
2022-12-11T20:11:40.563Z,97994.06
2022-12-11T20:14:07.402Z,97998.41
2022-12-11T20:17:08.654Z,97999.28
2022-12-11T20:19:20.814Z,97993.25
2022-12-11T20:21:47.395Z,97997.63
2022-12-11T20:24:13.980Z,98004.56
2022-12-11T20:26:40.804Z,98001.16
2022-12-11T20:29:08.555Z,98004.53
2022-12-11T20:31:36.501Z,98001.19
2022-12-11T20:34:03.908Z,98010.59
2022-12-11T20:36:30.775Z,98006.25
2022-12-11T20:38:57.615Z,98005.34
2022-12-11T20:41:25.462Z,98007.91
2022-12-11T20:43:54.135Z,98005.25
2022-12-11T20:46:23.215Z,98006.88
2022-12-11T20:48:50.716Z,98005.16
2022-12-11T20:51:25.811Z,98008.56
2022-12-11T20:53:58.698Z,98005.94
2022-12-11T20:56:29.079Z,98011.19
2022-12-11T20:58:56.587Z,98000.91
2022-12-11T21:01:26.011Z,98009.47
2022-12-11T21:03:53.597Z,98010.44
2022-12-11T21:06:25.805Z,98006.88
2022-12-11T21:08:53.286Z,98006.03
2022-12-11T21:11:20.935Z,98005.94
2022-12-11T21:13:47.541Z,98013.63
2022-12-11T21:16:14.304Z,98006.84
2022-12-11T21:18:41.635Z,98010.41
2022-12-11T21:21:08.317Z,98010.44
2022-12-11T21:23:34.926Z,98020.03
2022-12-11T21:26:01.691Z,98014.88
2022-12-11T21:28:33.572Z,98020.06
2022-12-11T21:31:04.763Z,98016.66
2022-12-11T21:33:31.459Z,98018.44
2022-12-11T21:36:00.079Z,98014.97
2022-12-11T21:38:29.308Z,98017.47
2022-12-11T21:40:56.347Z,98015.66
2022-12-11T21:43:23.356Z,98013.06
2022-12-11T21:46:00.864Z,98023.31
2022-12-11T21:48:28.603Z,98016.47
2022-12-11T21:50:55.292Z,98012.22
2022-12-11T21:53:21.836Z,98022.59
2022-12-11T21:55:48.494Z,98015.97
2022-12-11T21:58:15.831Z,98019.47
2022-12-11T22:00:42.518Z,98019.56
2022-12-11T22:03:09.147Z,98022.25
2022-12-11T22:05:35.703Z,98027.50
2022-12-11T22:08:02.375Z,98029.16
2022-12-11T22:10:29.559Z,98023.13
2022-12-11T22:12:56.171Z,98020.53
2022-12-11T22:15:23.131Z,98031.69
2022-12-11T22:17:50.152Z,98023.94
2022-12-11T22:20:16.818Z,98026.44
2022-12-11T22:22:43.366Z,98029.81
2022-12-11T22:25:10.370Z,98030.56
2022-12-11T22:27:37.277Z,98030.50
2022-12-11T22:30:04.587Z,98031.44
2022-12-11T22:32:31.115Z,98027.03
2022-12-11T22:34:57.931Z,98028.72
2022-12-11T22:37:24.837Z,98023.53
2022-12-11T22:39:51.456Z,98030.38
2022-12-11T22:42:18.131Z,98027.78
2022-12-11T22:44:44.688Z,98032.06
2022-12-11T22:47:11.407Z,98028.56
2022-12-11T22:49:38.057Z,98028.50
2022-12-11T22:52:04.871Z,98033.56
2022-12-11T22:54:31.426Z,98031.06
2022-12-11T22:56:58.067Z,98031.84
2022-12-11T22:59:24.696Z,98033.47
2022-12-11T23:01:51.340Z,98040.31
2022-12-11T23:04:17.932Z,98031.69
2022-12-11T23:06:44.461Z,98025.66
2022-12-11T23:09:11.555Z,98036.03
2022-12-11T23:11:39.161Z,98040.56
2022-12-11T23:14:07.918Z,98044.94
2022-12-11T23:16:34.882Z,98046.78
2022-12-11T23:19:01.517Z,98045.16
2022-12-11T23:21:28.944Z,98050.44
2022-12-11T23:23:55.886Z,98049.63
2022-12-11T23:26:22.982Z,98042.81
2022-12-11T23:28:49.951Z,98048.09
2022-12-11T23:31:17.058Z,98045.47
2022-12-11T23:33:43.717Z,98042.00
2022-12-11T23:36:11.154Z,98050.63
2022-12-11T23:38:38.178Z,98042.81
2022-12-11T23:41:06.199Z,98055.69
2022-12-11T23:43:35.307Z,98052.22
2022-12-11T23:46:07.611Z,98059.09
2022-12-11T23:48:34.367Z,98060.78
2022-12-11T23:51:02.181Z,98058.34
2022-12-11T23:53:29.071Z,98059.28
2022-12-11T23:55:55.688Z,98056.03
2022-12-11T23:58:22.398Z,98063.75
